createdAt,value
2023-04-03T00:00:34.771Z,1.56
2023-04-03T00:03:02.034Z,1.54
2023-04-03T00:05:28.965Z,1.54
2023-04-03T00:07:55.784Z,1.54
2023-04-03T00:10:22.646Z,1.54
2023-04-03T00:12:49.361Z,1.54
2023-04-03T00:15:16.280Z,1.54
2023-04-03T00:17:43.356Z,1.51
2023-04-03T00:20:10.799Z,1.45
2023-04-03T00:22:37.515Z,1.39
2023-04-03T00:25:05.454Z,1.34
2023-04-03T00:27:32.395Z,1.29
2023-04-03T00:29:59.108Z,1.26
2023-04-03T00:32:25.967Z,1.26
2023-04-03T00:34:52.697Z,1.24
2023-04-03T00:37:19.516Z,1.23
2023-04-03T00:39:46.922Z,1.22
2023-04-03T00:42:13.832Z,1.21
2023-04-03T00:44:40.598Z,1.19
2023-04-03T00:47:12.112Z,1.18
2023-04-03T00:49:40.882Z,1.17
2023-04-03T00:52:14.809Z,1.18
2023-04-03T00:54:43.735Z,1.18
2023-04-03T00:57:12.538Z,1.17
2023-04-03T00:59:43.095Z,1.17
2023-04-03T01:02:09.823Z,1.16
2023-04-03T01:04:39.790Z,1.14
2023-04-03T01:07:17.072Z,1.11
2023-04-03T01:09:45.898Z,1.06
2023-04-03T01:12:25.057Z,1.02
2023-04-03T01:15:05.937Z,0.99
2023-04-03T01:17:37.688Z,0.97
2023-04-03T01:20:18.386Z,0.94
2023-04-03T01:22:54.811Z,0.93
2023-04-03T01:25:21.559Z,0.91
2023-04-03T01:27:48.241Z,0.89
2023-04-03T01:30:18.860Z,0.85
2023-04-03T01:32:45.672Z,0.81
2023-04-03T01:35:12.656Z,0.77
2023-04-03T01:37:39.600Z,0.76
2023-04-03T01:40:08.166Z,0.75
2023-04-03T01:42:35.064Z,0.74
2023-04-03T01:45:01.744Z,0.70
2023-04-03T01:47:28.563Z,0.69
2023-04-03T01:49:55.445Z,0.66
2023-04-03T01:52:22.516Z,0.63
2023-04-03T01:54:49.372Z,0.62
2023-04-03T01:57:16.432Z,0.60
2023-04-03T01:59:43.310Z,0.61
2023-04-03T02:02:10.059Z,0.63
2023-04-03T02:04:36.825Z,0.62
2023-04-03T02:07:03.728Z,0.61
2023-04-03T02:09:30.745Z,0.61
2023-04-03T02:11:57.458Z,0.62
2023-04-03T02:14:24.762Z,0.61
2023-04-03T02:16:51.855Z,0.60
2023-04-03T02:19:18.731Z,0.59
2023-04-03T02:21:45.780Z,0.57
2023-04-03T02:24:12.507Z,0.59
2023-04-03T02:26:39.250Z,0.60
2023-04-03T02:29:06.047Z,0.62
2023-04-03T02:31:32.867Z,0.62
2023-04-03T02:33:59.806Z,0.62
2023-04-03T02:36:26.590Z,0.61
2023-04-03T02:38:53.298Z,0.60
2023-04-03T02:41:20.017Z,0.60
2023-04-03T02:43:46.687Z,0.62
2023-04-03T02:46:16.145Z,0.63
2023-04-03T02:48:43.032Z,0.63
2023-04-03T02:51:09.718Z,0.64
2023-04-03T02:53:36.377Z,0.64
2023-04-03T02:56:03.284Z,0.63
2023-04-03T02:58:29.987Z,0.61
2023-04-03T03:00:56.668Z,0.60
2023-04-03T03:03:24.138Z,0.57
2023-04-03T03:05:50.890Z,0.55
2023-04-03T03:08:21.367Z,0.54
2023-04-03T03:10:48.083Z,0.56
2023-04-03T03:13:14.747Z,0.56
2023-04-03T03:15:41.461Z,0.56
2023-04-03T03:18:08.429Z,0.56
2023-04-03T03:20:35.889Z,0.54
2023-04-03T03:23:02.876Z,0.52
2023-04-03T03:25:29.553Z,0.48
2023-04-03T03:27:56.252Z,0.46
2023-04-03T03:30:23.170Z,0.45
2023-04-03T03:32:50.436Z,0.45
2023-04-03T03:35:17.321Z,0.45
2023-04-03T03:37:44.150Z,0.46
2023-04-03T03:40:13.097Z,0.46
2023-04-03T03:42:40.907Z,0.45
2023-04-03T03:45:08.602Z,0.44
2023-04-03T03:47:35.434Z,0.42
2023-04-03T03:50:02.655Z,0.41
2023-04-03T03:52:31.164Z,0.39
2023-04-03T03:54:58.128Z,0.39
2023-04-03T03:57:25.085Z,0.41
2023-04-03T03:59:52.854Z,0.41
2023-04-03T04:02:19.790Z,0.41
2023-04-03T04:04:47.038Z,0.37
2023-04-03T04:07:14.404Z,0.34
2023-04-03T04:09:41.384Z,0.31
2023-04-03T04:12:08.104Z,0.31
2023-04-03T04:14:35.021Z,0.30
2023-04-03T04:17:03.600Z,0.30
2023-04-03T04:19:30.498Z,0.28
2023-04-03T04:21:57.386Z,0.27
2023-04-03T04:24:24.557Z,0.29
2023-04-03T04:26:51.285Z,0.31
2023-04-03T04:29:17.928Z,0.32
2023-04-03T04:31:44.672Z,0.32
2023-04-03T04:34:11.589Z,0.31
2023-04-03T04:36:38.394Z,0.31
2023-04-03T04:39:06.339Z,0.29
2023-04-03T04:41:33.037Z,0.26
2023-04-03T04:43:59.750Z,0.22
2023-04-03T04:46:26.510Z,0.22
2023-04-03T04:48:53.408Z,0.22
2023-04-03T04:51:20.293Z,0.21
2023-04-03T04:53:47.053Z,0.18
2023-04-03T04:56:13.811Z,0.15
2023-04-03T04:58:41.152Z,0.11
2023-04-03T05:01:10.609Z,0.11
2023-04-03T05:03:37.613Z,0.11
2023-04-03T05:06:05.084Z,0.12
2023-04-03T05:08:32.774Z,0.10
2023-04-03T05:10:59.775Z,0.08
2023-04-03T05:13:26.569Z,0.09
2023-04-03T05:15:53.495Z,0.06
2023-04-03T05:18:20.296Z,0.04
2023-04-03T05:20:51.681Z,0.04
2023-04-03T05:23:18.780Z,0.05
2023-04-03T05:25:46.476Z,0.04
2023-04-03T05:28:13.980Z,0.06
2023-04-03T05:30:40.816Z,0.08
2023-04-03T05:33:07.644Z,0.09
2023-04-03T05:35:38.178Z,0.11
2023-04-03T05:38:05.278Z,0.11
2023-04-03T05:40:32.304Z,0.11
2023-04-03T05:42:59.122Z,0.10
2023-04-03T05:45:25.896Z,0.09
2023-04-03T05:47:52.677Z,0.10
2023-04-03T05:50:19.555Z,0.12
2023-04-03T05:52:49.737Z,0.15
2023-04-03T05:55:16.819Z,0.16
2023-04-03T05:57:43.610Z,0.15
2023-04-03T06:00:16.553Z,0.15
2023-04-03T06:02:43.626Z,0.17
2023-04-03T06:05:12.904Z,0.20
2023-04-03T06:07:40.071Z,0.19
2023-04-03T06:10:07.934Z,0.17
2023-04-03T06:12:34.723Z,0.19
2023-04-03T06:15:02.557Z,0.19
2023-04-03T06:17:29.853Z,0.20
2023-04-03T06:19:57.278Z,0.23
2023-04-03T06:22:26.749Z,0.21
2023-04-03T06:24:53.687Z,0.18
2023-04-03T06:27:20.861Z,0.13
2023-04-03T06:29:48.004Z,0.08
2023-04-03T06:32:14.894Z,0.09
2023-04-03T06:34:42.876Z,0.12
2023-04-03T06:37:29.847Z,0.14
2023-04-03T06:39:57.335Z,0.19
2023-04-03T06:42:24.691Z,0.22
2023-04-03T06:44:51.604Z,0.26
2023-04-03T06:47:19.355Z,0.34
2023-04-03T06:49:46.251Z,0.41
2023-04-03T06:52:13.377Z,0.48
2023-04-03T06:54:41.807Z,0.54
2023-04-03T06:57:09.098Z,0.61
2023-04-03T06:59:37.780Z,0.67
2023-04-03T07:02:05.660Z,0.70
2023-04-03T07:04:32.752Z,0.72
2023-04-03T07:06:59.678Z,0.76
2023-04-03T07:09:27.388Z,0.81
2023-04-03T07:11:54.452Z,0.87
2023-04-03T07:14:22.679Z,0.92
2023-04-03T07:16:49.816Z,0.98
2023-04-03T07:19:16.838Z,1.01
2023-04-03T07:21:44.589Z,0.96
2023-04-03T07:24:15.145Z,0.92
2023-04-03T07:26:44.255Z,0.98
2023-04-03T07:29:11.128Z,1.06
2023-04-03T07:31:39.742Z,1.16
2023-04-03T07:34:07.052Z,1.20
2023-04-03T07:36:34.803Z,1.20
2023-04-03T07:39:01.923Z,1.21
2023-04-03T07:41:29.920Z,1.23
2023-04-03T07:43:57.821Z,1.32
2023-04-03T07:46:24.988Z,1.45
2023-04-03T07:48:52.027Z,1.64
2023-04-03T07:51:19.095Z,1.82
2023-04-03T07:53:46.218Z,2.00
2023-04-03T07:56:13.181Z,2.11
2023-04-03T07:58:40.005Z,2.08
2023-04-03T08:01:07.415Z,2.01
2023-04-03T08:03:34.200Z,1.98
2023-04-03T08:06:07.305Z,2.00
2023-04-03T08:08:35.108Z,2.08
2023-04-03T08:11:03.661Z,2.12
2023-04-03T08:13:31.833Z,2.17
2023-04-03T08:16:00.298Z,2.19
2023-04-03T08:18:27.912Z,2.24
2023-04-03T08:20:54.654Z,2.27
2023-04-03T08:23:22.128Z,2.35
2023-04-03T08:25:48.984Z,2.37
2023-04-03T08:28:16.219Z,2.35
2023-04-03T08:30:43.768Z,2.38
2023-04-03T08:33:11.577Z,2.39
2023-04-03T08:35:42.896Z,2.29
2023-04-03T08:38:11.560Z,2.17
2023-04-03T08:40:39.313Z,1.97
2023-04-03T08:43:29.221Z,1.83
2023-04-03T08:45:58.865Z,1.73
2023-04-03T08:48:34.894Z,1.69
2023-04-03T08:51:13.910Z,1.57
2023-04-03T08:53:45.630Z,1.43
2023-04-03T08:56:16.106Z,1.32
2023-04-03T08:58:49.763Z,1.26
2023-04-03T09:01:25.989Z,1.19
2023-04-03T09:03:53.260Z,1.16
2023-04-03T09:06:30.342Z,1.14
2023-04-03T09:09:11.866Z,1.12
2023-04-03T09:12:01.883Z,1.11
2023-04-03T09:14:44.374Z,1.10
2023-04-03T09:17:29.632Z,1.12
2023-04-03T09:20:05.604Z,1.08
2023-04-03T09:22:41.792Z,1.02
2023-04-03T09:25:17.191Z,0.99
2023-04-03T09:27:44.943Z,0.95
2023-04-03T09:30:17.357Z,0.93
2023-04-03T09:32:50.322Z,0.97
2023-04-03T09:35:32.938Z,0.99
2023-04-03T09:38:13.135Z,0.95
2023-04-03T09:40:43.285Z,0.89
2023-04-03T09:43:28.524Z,0.80
2023-04-03T09:45:56.422Z,0.79
2023-04-03T09:48:29.324Z,0.77
2023-04-03T09:51:00.599Z,0.74
2023-04-03T09:53:37.983Z,0.72
2023-04-03T09:56:18.800Z,0.66
2023-04-03T09:58:51.313Z,0.60
2023-04-03T10:01:36.799Z,0.63
2023-04-03T10:04:23.346Z,0.70
2023-04-03T10:06:55.893Z,0.76
2023-04-03T10:09:26.785Z,0.74
2023-04-03T10:12:10.006Z,0.67
2023-04-03T10:14:56.020Z,0.66
2023-04-03T10:17:24.481Z,0.70
2023-04-03T10:20:05.596Z,0.78
2023-04-03T10:22:43.855Z,0.87
2023-04-03T10:25:37.376Z,0.91
2023-04-03T10:28:13.683Z,0.97
2023-04-03T10:30:53.030Z,0.95
2023-04-03T10:33:29.075Z,0.87
2023-04-03T10:36:12.751Z,0.79
2023-04-03T10:38:47.276Z,0.75
2023-04-03T10:41:24.023Z,0.72
2023-04-03T10:44:10.452Z,0.76
2023-04-03T10:46:50.541Z,0.84
2023-04-03T10:49:32.766Z,0.92
2023-04-03T10:52:29.016Z,0.96
2023-04-03T10:55:16.249Z,1.03
2023-04-03T10:57:43.967Z,1.13
2023-04-03T11:00:23.730Z,1.15
2023-04-03T11:02:58.802Z,1.16
2023-04-03T11:05:39.377Z,1.20
2023-04-03T11:08:29.356Z,1.27
2023-04-03T11:11:03.108Z,1.30
2023-04-03T11:13:42.648Z,1.33
2023-04-03T11:16:10.287Z,1.33
2023-04-03T11:18:42.856Z,1.39
2023-04-03T11:21:37.807Z,1.48
2023-04-03T11:24:12.933Z,1.58
2023-04-03T11:26:43.489Z,1.68
2023-04-03T11:29:28.132Z,1.72
2023-04-03T11:32:29.470Z,1.77
2023-04-03T11:35:00.346Z,1.81
2023-04-03T11:37:39.033Z,1.81
2023-04-03T11:40:20.785Z,1.89
2023-04-03T11:43:05.931Z,2.00
2023-04-03T11:45:38.384Z,2.12
2023-04-03T11:48:28.370Z,2.31
2023-04-03T11:50:56.378Z,2.42
2023-04-03T11:53:35.725Z,2.45
2023-04-03T11:56:26.008Z,2.42
2023-04-03T11:59:15.506Z,2.43
2023-04-03T12:01:49.259Z,2.45
2023-04-03T12:04:18.842Z,2.47
2023-04-03T12:06:50.027Z,2.52
2023-04-03T12:09:27.991Z,2.64
2023-04-03T12:11:57.439Z,2.72
2023-04-03T12:14:29.859Z,2.75
2023-04-03T12:16:59.156Z,2.73
2023-04-03T12:19:42.021Z,2.72
2023-04-03T12:22:15.858Z,2.71
2023-04-03T12:24:51.731Z,2.72
2023-04-03T12:27:24.736Z,2.68
2023-04-03T12:30:07.018Z,2.62
2023-04-03T12:32:58.952Z,2.62
2023-04-03T12:35:41.865Z,2.59
2023-04-03T12:38:35.452Z,2.53
2023-04-03T12:41:22.526Z,2.57
2023-04-03T12:43:57.320Z,2.63
2023-04-03T12:46:27.630Z,2.70
2023-04-03T12:49:03.453Z,2.73
2023-04-03T12:51:42.439Z,2.64
2023-04-03T12:54:28.233Z,2.60
2023-04-03T12:57:29.128Z,2.62
2023-04-03T12:59:56.590Z,2.77
2023-04-03T13:02:28.199Z,2.91
2023-04-03T13:05:05.855Z,3.01
2023-04-03T13:07:35.881Z,3.02
2023-04-03T13:10:09.047Z,3.08
2023-04-03T13:12:46.571Z,3.11
2023-04-03T13:15:20.721Z,3.04
2023-04-03T13:17:51.195Z,2.97
2023-04-03T13:20:25.897Z,2.88
2023-04-03T13:23:00.786Z,2.80
2023-04-03T13:25:31.205Z,2.72
2023-04-03T13:28:12.644Z,2.71
2023-04-03T13:30:43.517Z,2.75
2023-04-03T13:33:26.203Z,2.75
2023-04-03T13:36:03.055Z,2.75
2023-04-03T13:38:34.157Z,2.81
2023-04-03T13:41:23.035Z,2.86
2023-04-03T13:43:53.513Z,2.92
2023-04-03T13:46:20.890Z,2.93
2023-04-03T13:48:53.069Z,3.01
2023-04-03T13:51:27.151Z,3.10
2023-04-03T13:53:59.151Z,3.15
2023-04-03T13:56:34.684Z,3.13
2023-04-03T13:59:04.136Z,3.13
2023-04-03T14:01:42.909Z,3.14
2023-04-03T14:04:18.302Z,3.23
2023-04-03T14:06:45.778Z,3.27
2023-04-03T14:09:13.109Z,3.28
2023-04-03T14:11:41.619Z,3.30
2023-04-03T14:14:23.917Z,3.34
2023-04-03T14:17:04.181Z,3.36
2023-04-03T14:19:34.801Z,3.32
2023-04-03T14:22:11.986Z,3.29
2023-04-03T14:24:40.490Z,3.27
2023-04-03T14:27:18.560Z,3.24
2023-04-03T14:29:46.430Z,3.18
2023-04-03T14:32:15.871Z,3.14
2023-04-03T14:34:44.701Z,3.08
2023-04-03T14:37:18.863Z,3.07
2023-04-03T14:39:47.570Z,3.09
2023-04-03T14:42:18.145Z,3.13
2023-04-03T14:44:45.550Z,3.20
2023-04-03T14:47:29.690Z,3.24
2023-04-03T14:49:58.609Z,3.21
2023-04-03T14:52:33.696Z,3.16
2023-04-03T14:55:02.435Z,3.11
2023-04-03T14:57:31.418Z,3.02
2023-04-03T14:59:58.451Z,3.00
2023-04-03T15:02:29.871Z,2.98
2023-04-03T15:04:58.661Z,2.97
2023-04-03T15:07:28.951Z,2.93
2023-04-03T15:09:57.655Z,2.87
2023-04-03T15:12:26.074Z,2.77
2023-04-03T15:15:00.853Z,2.68
2023-04-03T15:17:30.189Z,2.58
2023-04-03T15:19:57.283Z,2.50
2023-04-03T15:22:24.199Z,2.43
2023-04-03T15:24:51.074Z,2.38
2023-04-03T15:27:18.732Z,2.31
2023-04-03T15:29:46.275Z,2.26
2023-04-03T15:32:13.945Z,2.25
2023-04-03T15:34:41.624Z,2.24
2023-04-03T15:37:08.516Z,2.23
2023-04-03T15:39:35.598Z,2.20
2023-04-03T15:42:07.411Z,2.20
2023-04-03T15:44:36.165Z,2.20
2023-04-03T15:47:03.968Z,2.20
2023-04-03T15:49:33.143Z,2.20
2023-04-03T15:52:00.200Z,2.22
2023-04-03T15:54:27.938Z,2.26
2023-04-03T15:56:54.943Z,2.28
2023-04-03T15:59:22.234Z,2.28
2023-04-03T16:01:51.439Z,2.26
2023-04-03T16:04:19.480Z,2.22
2023-04-03T16:06:47.252Z,2.19
2023-04-03T16:09:14.261Z,2.16
2023-04-03T16:11:41.277Z,2.12
2023-04-03T16:14:09.281Z,2.08
2023-04-03T16:16:37.750Z,2.03
2023-04-03T16:19:05.921Z,1.98
2023-04-03T16:21:34.166Z,1.93
2023-04-03T16:24:02.610Z,1.89
2023-04-03T16:26:29.815Z,1.86
2023-04-03T16:28:56.939Z,1.84
2023-04-03T16:31:26.350Z,1.82
2023-04-03T16:33:53.565Z,1.81
2023-04-03T16:36:20.574Z,1.79
2023-04-03T16:38:47.583Z,1.77
2023-04-03T16:41:14.558Z,1.74
2023-04-03T16:46:13.609Z,1.67
2023-04-03T16:48:40.607Z,1.65
2023-04-03T16:51:08.149Z,1.62
2023-04-03T16:53:34.963Z,1.59
2023-04-03T16:56:01.946Z,1.56
2023-04-03T16:58:29.478Z,1.54
2023-04-03T17:00:56.413Z,1.51
2023-04-03T17:03:26.975Z,1.49
2023-04-03T17:05:54.087Z,1.45
2023-04-03T17:08:20.971Z,1.41
2023-04-03T17:10:50.184Z,1.38
2023-04-03T17:13:17.893Z,1.35
2023-04-03T17:15:44.629Z,1.32
2023-04-03T17:18:11.755Z,1.29
2023-04-03T17:20:39.416Z,1.26
2023-04-03T17:23:07.271Z,1.23
2023-04-03T17:25:34.016Z,1.20
2023-04-03T17:28:01.118Z,1.19
2023-04-03T17:30:27.873Z,1.16
2023-04-03T17:32:54.678Z,1.13
2023-04-03T17:35:21.564Z,1.11
2023-04-03T17:37:50.647Z,1.07
2023-04-03T17:40:18.883Z,1.05
2023-04-03T17:42:46.035Z,1.00
2023-04-03T17:45:12.922Z,0.97
2023-04-03T17:47:40.092Z,0.93
2023-04-03T17:50:08.017Z,0.89
2023-04-03T17:52:35.084Z,0.86
2023-04-03T17:55:01.993Z,0.83
2023-04-03T17:57:29.398Z,0.80
2023-04-03T17:59:56.099Z,0.78
2023-04-03T18:02:22.963Z,0.77
2023-04-03T18:04:53.353Z,0.74
2023-04-03T18:07:20.783Z,0.71
2023-04-03T18:09:49.806Z,0.68
2023-04-03T18:12:16.636Z,0.65
2023-04-03T18:14:45.873Z,0.61
2023-04-03T18:17:12.755Z,0.56
2023-04-03T18:19:39.574Z,0.52
2023-04-03T18:22:14.857Z,0.47
2023-04-03T18:24:43.662Z,0.43
2023-04-03T18:27:14.104Z,0.39
2023-04-03T18:29:44.023Z,0.36
2023-04-03T18:32:12.394Z,0.33
2023-04-03T18:34:39.179Z,0.30
2023-04-03T18:37:06.257Z,0.28
2023-04-03T18:39:33.742Z,0.27
2023-04-03T18:42:10.336Z,0.24
2023-04-03T18:44:39.658Z,0.21
2023-04-03T18:47:07.931Z,0.19
2023-04-03T18:49:38.102Z,0.16
2023-04-03T18:52:05.869Z,0.16
2023-04-03T18:54:33.181Z,0.15
2023-04-03T18:57:00.101Z,0.15
2023-04-03T18:59:27.584Z,0.15
2023-04-03T19:01:55.902Z,0.13
2023-04-03T19:04:23.282Z,0.12
2023-04-03T19:06:50.542Z,0.12
2023-04-03T19:09:17.425Z,0.13
2023-04-03T19:11:44.308Z,0.15
2023-04-03T19:14:16.768Z,0.17
2023-04-03T19:16:45.387Z,0.18
2023-04-03T19:19:13.343Z,0.19
2023-04-03T19:21:41.812Z,0.21
2023-04-03T19:24:13.950Z,0.21
2023-04-03T19:26:42.856Z,0.22
2023-04-03T19:29:10.674Z,0.22
2023-04-03T19:31:38.642Z,0.22
2023-04-03T19:34:07.192Z,0.22
2023-04-03T19:36:34.877Z,0.22
2023-04-03T19:39:01.890Z,0.21
2023-04-03T19:41:32.008Z,0.21
2023-04-03T19:43:59.000Z,0.20
2023-04-03T19:46:28.168Z,0.20
2023-04-03T19:48:55.661Z,0.20
2023-04-03T19:51:22.511Z,0.20
2023-04-03T19:53:49.396Z,0.20
2023-04-03T19:56:17.111Z,0.20
2023-04-03T19:58:44.707Z,0.19
2023-04-03T20:01:11.611Z,0.20
2023-04-03T20:03:38.569Z,0.19
2023-04-03T20:06:05.763Z,0.19
2023-04-03T20:08:33.048Z,0.18
2023-04-03T20:11:00.114Z,0.18
2023-04-03T20:13:28.507Z,0.18
2023-04-03T20:15:56.331Z,0.18
2023-04-03T20:18:23.308Z,0.17
2023-04-03T20:21:01.841Z,0.17
2023-04-03T20:23:30.249Z,0.16
2023-04-03T20:26:09.357Z,0.16
2023-04-03T20:28:38.934Z,0.15
2023-04-03T20:31:06.885Z,0.14
2023-04-03T20:33:34.184Z,0.14
2023-04-03T20:36:02.365Z,0.15
2023-04-03T20:38:29.154Z,0.16
2023-04-03T20:40:56.250Z,0.19
2023-04-03T20:43:23.897Z,0.22
2023-04-03T20:45:51.138Z,0.26
2023-04-03T20:48:18.759Z,0.29
2023-04-03T20:50:47.110Z,0.33
2023-04-03T20:53:15.330Z,0.36
2023-04-03T20:55:42.463Z,0.38
2023-04-03T20:58:09.768Z,0.39
2023-04-03T21:00:38.479Z,0.40
2023-04-03T21:03:06.010Z,0.40
2023-04-03T21:05:35.062Z,0.40
2023-04-03T21:08:30.104Z,0.39
2023-04-03T21:11:26.529Z,0.37
2023-04-03T21:14:27.860Z,0.35
2023-04-03T21:16:54.598Z,0.32
2023-04-03T21:19:21.800Z,0.29
2023-04-03T21:21:49.882Z,0.26
2023-04-03T21:24:18.147Z,0.24
2023-04-03T21:26:46.170Z,0.20
2023-04-03T21:29:13.030Z,0.18
2023-04-03T21:31:57.075Z,0.17
2023-04-03T21:34:29.081Z,0.14
2023-04-03T21:36:57.833Z,0.12
2023-04-03T21:39:24.540Z,0.10
2023-04-03T21:41:54.192Z,0.09
2023-04-03T21:44:22.421Z,0.08
2023-04-03T21:46:54.726Z,0.07
2023-04-03T21:49:23.041Z,0.07
2023-04-03T21:51:51.935Z,0.09
2023-04-03T21:54:19.240Z,0.10
2023-04-03T21:56:48.265Z,0.12
2023-04-03T21:59:16.029Z,0.15
2023-04-03T22:01:43.338Z,0.18
2023-04-03T22:04:10.417Z,0.21
2023-04-03T22:06:38.258Z,0.24
2023-04-03T22:09:05.238Z,0.27
2023-04-03T22:11:32.737Z,0.28
2023-04-03T22:14:00.281Z,0.29
2023-04-03T22:16:27.612Z,0.29
2023-04-03T22:18:55.221Z,0.28
2023-04-03T22:21:22.533Z,0.29
2023-04-03T22:23:49.569Z,0.27
2023-04-03T22:26:16.715Z,0.25
2023-04-03T22:28:46.328Z,0.23
2023-04-03T22:31:15.046Z,0.21
2023-04-03T22:33:43.710Z,0.19
2023-04-03T22:36:12.003Z,0.16
2023-04-03T22:38:39.481Z,0.14
2023-04-03T22:41:08.325Z,0.13
2023-04-03T22:43:36.934Z,0.10
2023-04-03T22:46:05.771Z,0.07
2023-04-03T22:48:33.718Z,0.06
2023-04-03T22:51:01.232Z,0.06
2023-04-03T22:53:28.845Z,0.06
2023-04-03T22:55:56.957Z,0.08
2023-04-03T22:58:26.659Z,0.10
2023-04-03T23:00:55.321Z,0.13
2023-04-03T23:03:25.956Z,0.14
2023-04-03T23:05:53.584Z,0.14
2023-04-03T23:08:20.309Z,0.14
2023-04-03T23:10:47.272Z,0.14
2023-04-03T23:13:14.229Z,0.13
2023-04-03T23:15:41.126Z,0.11
2023-04-03T23:18:08.138Z,0.09
2023-04-03T23:20:34.889Z,0.06
2023-04-03T23:23:01.761Z,0.04
2023-04-03T23:25:28.616Z,0.01
2023-04-03T23:27:55.336Z,-0.02
2023-04-03T23:30:22.378Z,-0.05
2023-04-03T23:32:49.182Z,-0.08
2023-04-03T23:35:16.049Z,-0.10
2023-04-03T23:37:42.992Z,-0.13
2023-04-03T23:40:10.704Z,-0.15
2023-04-03T23:42:37.616Z,-0.17
2023-04-03T23:45:04.584Z,-0.20
2023-04-03T23:47:31.394Z,-0.21
2023-04-03T23:49:58.830Z,-0.20
2023-04-03T23:52:25.784Z,-0.19
2023-04-03T23:54:52.604Z,-0.18
2023-04-03T23:57:19.273Z,-0.17
2023-04-03T23:59:46.377Z,-0.16
